createdAt,value
2017-11-14T16:43:49.967Z,11.90
2017-11-14T16:46:17.513Z,11.80
2017-11-14T16:48:45.874Z,11.40
2017-11-14T16:51:13.943Z,12.07
2017-11-14T16:53:42.125Z,11.07
2017-11-14T16:56:10.733Z,11.10
2017-11-14T16:58:39.927Z,11.37
2017-11-14T17:01:11.687Z,12.13
2017-11-14T17:03:39.863Z,11.33
2017-11-14T17:06:07.912Z,12.07
2017-11-14T17:08:38.035Z,10.60
2017-11-14T17:11:08.186Z,11.70
2017-11-14T17:13:38.836Z,12.77
2017-11-14T17:16:07.876Z,11.00
2017-11-14T17:18:37.506Z,11.70
2017-11-14T17:21:13.520Z,10.80
2017-11-14T17:23:42.672Z,10.37
2017-11-14T17:26:10.611Z,10.90
2017-11-14T17:28:39.417Z,11.50
2017-11-14T17:31:08.428Z,10.80
2017-11-14T17:33:36.811Z,37.77
2017-11-14T17:36:05.733Z,15.23
2017-11-14T17:38:35.121Z,11.17
2017-11-14T17:41:07.444Z,11.57
2017-11-14T17:43:36.780Z,12.77
2017-11-14T17:46:04.731Z,12.23
2017-11-14T17:48:38.426Z,10.97
2017-11-14T17:51:08.104Z,12.00
2017-11-14T17:53:38.682Z,10.80
2017-11-14T17:56:10.080Z,11.07
2017-11-14T17:58:38.947Z,10.80
2017-11-14T18:01:07.537Z,11.30
2017-11-14T18:03:36.555Z,11.03
2017-11-14T18:06:05.610Z,11.63
2017-11-14T18:08:36.417Z,11.27
2017-11-14T18:11:05.704Z,12.03
2017-11-14T18:13:35.488Z,11.43
2017-11-14T18:16:06.837Z,11.87
2017-11-14T18:18:37.881Z,12.07
2017-11-14T18:21:07.572Z,13.23
2017-11-14T18:23:36.671Z,11.80
2017-11-14T18:26:06.966Z,12.37
2017-11-14T18:28:39.763Z,13.50
2017-11-14T18:31:08.792Z,12.80
2017-11-14T18:33:37.835Z,12.60
2017-11-14T18:36:08.127Z,14.50
2017-11-14T18:38:36.497Z,14.00
2017-11-14T18:41:07.649Z,14.33
2017-11-14T18:43:41.024Z,13.63
2017-11-14T18:46:10.302Z,12.30
2017-11-14T18:48:40.120Z,12.70
2017-11-14T18:51:09.549Z,11.60
2017-11-14T18:53:37.725Z,12.13
2017-11-14T18:56:07.664Z,11.77
2017-11-14T18:58:37.907Z,11.50
2017-11-14T19:01:05.938Z,12.73
2017-11-14T19:03:34.041Z,12.23
2017-11-14T19:06:02.679Z,12.40
2017-11-14T19:08:31.303Z,12.50
2017-11-14T19:10:59.077Z,11.80
2017-11-14T19:13:29.496Z,11.00
2017-11-14T19:16:01.488Z,12.40
2017-11-14T19:18:29.310Z,11.60
2017-11-14T19:20:56.883Z,12.57
2017-11-14T19:23:26.569Z,10.67
2017-11-14T19:25:55.611Z,11.40
2017-11-14T19:28:24.963Z,9.93
2017-11-14T19:30:52.754Z,10.03
2017-11-14T19:33:22.155Z,11.00
2017-11-14T19:35:51.991Z,13.00
2017-11-14T19:38:20.117Z,11.13
2017-11-14T19:40:49.080Z,11.37
2017-11-14T19:43:18.013Z,11.20
2017-11-14T19:45:47.290Z,10.90
2017-11-14T19:48:14.833Z,11.40
2017-11-14T19:50:42.462Z,11.00
2017-11-14T19:53:10.328Z,12.80
2017-11-14T19:55:40.119Z,10.67
2017-11-14T19:58:08.385Z,9.80
2017-11-14T20:00:37.669Z,10.27
2017-11-14T20:03:06.106Z,9.93
2017-11-14T20:05:35.304Z,10.70
2017-11-14T20:08:03.553Z,9.50
2017-11-14T20:10:36.073Z,8.93
2017-11-14T20:13:04.934Z,10.67
2017-11-14T20:15:34.822Z,10.77
2017-11-14T20:18:05.453Z,10.10
2017-11-14T20:20:33.633Z,10.30
2017-11-14T20:23:01.749Z,11.93
2017-11-14T20:25:30.224Z,16.70
2017-11-14T20:27:57.801Z,16.23
2017-11-14T20:30:26.128Z,14.17
2017-11-14T20:32:53.672Z,11.23
2017-11-14T20:35:21.249Z,11.87
2017-11-14T20:37:48.786Z,10.97
2017-11-14T20:40:17.030Z,11.37
2017-11-14T20:42:44.710Z,9.30
2017-11-14T20:45:12.385Z,8.97
2017-11-14T20:47:40.066Z,10.80
2017-11-14T20:50:08.402Z,10.20
2017-11-14T20:52:36.021Z,9.43
2017-11-14T20:55:05.056Z,8.03
2017-11-14T20:57:35.918Z,7.67
2017-11-14T21:00:06.132Z,8.10
2017-11-14T21:02:35.416Z,6.90
2017-11-14T21:05:04.459Z,8.60
2017-11-14T21:07:33.900Z,8.20
2017-11-14T21:10:03.197Z,7.10
2017-11-14T21:12:31.201Z,7.00
2017-11-14T21:14:58.838Z,7.43
2017-11-14T21:17:28.748Z,7.20
2017-11-14T21:19:56.454Z,8.17
2017-11-14T21:22:24.793Z,8.43
2017-11-14T21:24:52.371Z,8.30
2017-11-14T21:27:19.928Z,8.20
2017-11-14T21:29:48.484Z,7.70
2017-11-14T21:32:16.085Z,7.20
2017-11-14T21:34:45.203Z,7.87
2017-11-14T21:37:13.510Z,8.73
2017-11-14T21:39:42.788Z,8.30
2017-11-14T21:42:12.505Z,7.83
2017-11-14T21:44:40.437Z,7.17
2017-11-14T21:47:08.129Z,7.17
2017-11-14T21:49:36.698Z,6.67
2017-11-14T21:52:04.454Z,6.83
2017-11-14T21:54:32.580Z,7.80
2017-11-14T21:57:00.444Z,7.23
2017-11-14T21:59:28.960Z,8.30
2017-11-14T22:01:56.492Z,8.17
2017-11-14T22:04:25.756Z,7.67
2017-11-14T22:06:53.286Z,7.30
2017-11-14T22:09:21.622Z,6.37
2017-11-14T22:11:49.152Z,6.50
2017-11-14T22:14:17.490Z,6.73
2017-11-14T22:16:45.022Z,7.60
2017-11-14T22:19:13.317Z,7.20
2017-11-14T22:21:40.949Z,9.40
2017-11-14T22:24:08.637Z,7.43
2017-11-14T22:26:36.392Z,7.67
2017-11-14T22:29:05.008Z,5.83
2017-11-14T22:31:33.621Z,7.90
2017-11-14T22:34:01.369Z,6.60
2017-11-14T22:36:29.760Z,8.00
2017-11-14T22:38:58.818Z,10.63
2017-11-14T22:41:26.505Z,9.10
2017-11-14T22:43:54.055Z,7.80
2017-11-14T22:46:22.396Z,9.80
2017-11-14T22:48:49.927Z,8.67
2017-11-14T22:51:18.258Z,9.10
2017-11-14T22:53:46.121Z,6.90
2017-11-14T22:56:13.694Z,7.87
2017-11-14T22:58:42.125Z,6.93
2017-11-14T23:01:09.818Z,7.30
2017-11-14T23:03:39.190Z,6.43
2017-11-14T23:06:08.011Z,6.23
2017-11-14T23:08:36.132Z,6.40
2017-11-14T23:11:06.351Z,6.10
2017-11-14T23:13:36.618Z,6.50
2017-11-14T23:16:04.678Z,6.87
2017-11-14T23:18:38.782Z,6.57
2017-11-14T23:21:08.312Z,6.50
2017-11-14T23:23:38.809Z,5.77
2017-11-14T23:26:11.075Z,5.80
2017-11-14T23:28:40.758Z,5.80
2017-11-14T23:31:09.252Z,5.97
2017-11-14T23:33:40.225Z,6.63
2017-11-14T23:36:09.215Z,6.50
2017-11-14T23:38:37.295Z,5.90
2017-11-14T23:41:08.078Z,5.57
2017-11-14T23:43:38.117Z,4.97
2017-11-14T23:46:08.953Z,5.20
2017-11-14T23:48:38.379Z,6.27
2017-11-14T23:51:08.467Z,6.63
2017-11-14T23:53:50.528Z,6.00
2017-11-14T23:56:18.820Z,5.33
2017-11-14T23:58:47.171Z,4.90
